sensor_id;sensor_type;location;lat;lon;timestamp;P1;durP1;ratioP1;P2;durP2;ratioP2
14348;SDS011;7258;50.376;8.742;2023-05-27T00:01:09;9.97;;;4.37;;
14348;SDS011;7258;50.376;8.742;2023-05-27T00:03:14;10.03;;;4.53;;
14348;SDS011;7258;50.376;8.742;2023-05-27T00:05:20;14.87;;;5.17;;
14348;SDS011;7258;50.376;8.742;2023-05-27T00:07:25;12.83;;;5.40;;
14348;SDS011;7258;50.376;8.742;2023-05-27T00:09:30;10.23;;;4.17;;
14348;SDS011;7258;50.376;8.742;2023-05-27T00:11:33;14.20;;;4.70;;
14348;SDS011;7258;50.376;8.742;2023-05-27T00:13:36;12.27;;;4.67;;
14348;SDS011;7258;50.376;8.742;2023-05-27T00:15:40;10.60;;;4.83;;
14348;SDS011;7258;50.376;8.742;2023-05-27T00:17:44;10.20;;;4.10;;
14348;SDS011;7258;50.376;8.742;2023-05-27T00:19:47;13.17;;;4.77;;
14348;SDS011;7258;50.376;8.742;2023-05-27T00:21:50;11.60;;;4.87;;
14348;SDS011;7258;50.376;8.742;2023-05-27T00:23:54;12.73;;;5.00;;
14348;SDS011;7258;50.376;8.742;2023-05-27T00:26:00;11.03;;;5.10;;
14348;SDS011;7258;50.376;8.742;2023-05-27T00:28:05;10.57;;;5.00;;
14348;SDS011;7258;50.376;8.742;2023-05-27T00:30:09;13.80;;;5.20;;
14348;SDS011;7258;50.376;8.742;2023-05-27T00:32:13;11.33;;;4.80;;
14348;SDS011;7258;50.376;8.742;2023-05-27T00:34:16;11.47;;;4.43;;
14348;SDS011;7258;50.376;8.742;2023-05-27T00:36:19;11.20;;;4.70;;
14348;SDS011;7258;50.376;8.742;2023-05-27T00:38:22;11.47;;;4.97;;
14348;SDS011;7258;50.376;8.742;2023-05-27T00:40:28;11.30;;;4.97;;
14348;SDS011;7258;50.376;8.742;2023-05-27T00:42:33;11.00;;;4.97;;
14348;SDS011;7258;50.376;8.742;2023-05-27T00:44:37;11.90;;;4.87;;
14348;SDS011;7258;50.376;8.742;2023-05-27T00:46:44;12.83;;;5.33;;
14348;SDS011;7258;50.376;8.742;2023-05-27T00:48:48;12.10;;;5.13;;
14348;SDS011;7258;50.376;8.742;2023-05-27T00:50:52;12.70;;;4.70;;
14348;SDS011;7258;50.376;8.742;2023-05-27T00:52:55;12.00;;;4.83;;
14348;SDS011;7258;50.376;8.742;2023-05-27T00:55:00;12.93;;;4.63;;
14348;SDS011;7258;50.376;8.742;2023-05-27T00:57:05;12.53;;;5.17;;
14348;SDS011;7258;50.376;8.742;2023-05-27T00:59:10;7.83;;;4.53;;
14348;SDS011;7258;50.376;8.742;2023-05-27T01:01:14;10.57;;;4.67;;
14348;SDS011;7258;50.376;8.742;2023-05-27T01:03:17;11.13;;;5.33;;
14348;SDS011;7258;50.376;8.742;2023-05-27T01:05:21;10.37;;;4.50;;
14348;SDS011;7258;50.376;8.742;2023-05-27T01:07:26;10.87;;;4.47;;
14348;SDS011;7258;50.376;8.742;2023-05-27T01:09:38;15.97;;;5.63;;
14348;SDS011;7258;50.376;8.742;2023-05-27T01:11:49;13.43;;;5.30;;
14348;SDS011;7258;50.376;8.742;2023-05-27T01:14:00;14.50;;;5.63;;
14348;SDS011;7258;50.376;8.742;2023-05-27T01:16:16;15.83;;;6.60;;
14348;SDS011;7258;50.376;8.742;2023-05-27T01:18:21;14.03;;;5.40;;
14348;SDS011;7258;50.376;8.742;2023-05-27T01:20:30;15.23;;;5.50;;
14348;SDS011;7258;50.376;8.742;2023-05-27T01:22:35;11.83;;;5.00;;
14348;SDS011;7258;50.376;8.742;2023-05-27T01:24:42;14.20;;;5.17;;
14348;SDS011;7258;50.376;8.742;2023-05-27T01:26:45;15.07;;;5.00;;
14348;SDS011;7258;50.376;8.742;2023-05-27T01:28:49;18.47;;;5.67;;
14348;SDS011;7258;50.376;8.742;2023-05-27T01:30:53;9.73;;;4.70;;
14348;SDS011;7258;50.376;8.742;2023-05-27T01:33:04;12.50;;;4.63;;
14348;SDS011;7258;50.376;8.742;2023-05-27T01:35:13;10.73;;;5.20;;
14348;SDS011;7258;50.376;8.742;2023-05-27T01:37:24;14.50;;;5.27;;
14348;SDS011;7258;50.376;8.742;2023-05-27T01:39:31;14.80;;;5.70;;
14348;SDS011;7258;50.376;8.742;2023-05-27T01:41:36;11.37;;;5.30;;
14348;SDS011;7258;50.376;8.742;2023-05-27T01:43:41;13.53;;;5.77;;
14348;SDS011;7258;50.376;8.742;2023-05-27T01:45:45;13.37;;;4.67;;
14348;SDS011;7258;50.376;8.742;2023-05-27T01:47:51;9.47;;;4.90;;
14348;SDS011;7258;50.376;8.742;2023-05-27T01:49:54;13.73;;;5.47;;
14348;SDS011;7258;50.376;8.742;2023-05-27T01:51:57;11.40;;;5.00;;
14348;SDS011;7258;50.376;8.742;2023-05-27T01:54:01;12.53;;;5.10;;
14348;SDS011;7258;50.376;8.742;2023-05-27T01:56:06;12.20;;;5.17;;
14348;SDS011;7258;50.376;8.742;2023-05-27T01:58:09;12.77;;;5.27;;
14348;SDS011;7258;50.376;8.742;2023-05-27T02:00:15;13.97;;;6.37;;
14348;SDS011;7258;50.376;8.742;2023-05-27T02:02:18;14.87;;;5.23;;
14348;SDS011;7258;50.376;8.742;2023-05-27T02:04:24;14.23;;;6.00;;
14348;SDS011;7258;50.376;8.742;2023-05-27T02:06:27;13.27;;;5.50;;
14348;SDS011;7258;50.376;8.742;2023-05-27T02:08:33;13.73;;;5.90;;
14348;SDS011;7258;50.376;8.742;2023-05-27T02:10:43;12.20;;;5.20;;
14348;SDS011;7258;50.376;8.742;2023-05-27T02:12:50;12.83;;;5.10;;
14348;SDS011;7258;50.376;8.742;2023-05-27T02:14:56;12.43;;;5.70;;
14348;SDS011;7258;50.376;8.742;2023-05-27T02:17:02;16.10;;;6.33;;
14348;SDS011;7258;50.376;8.742;2023-05-27T02:19:06;13.87;;;5.50;;
14348;SDS011;7258;50.376;8.742;2023-05-27T02:21:09;18.07;;;6.50;;
14348;SDS011;7258;50.376;8.742;2023-05-27T02:23:13;12.00;;;5.53;;
14348;SDS011;7258;50.376;8.742;2023-05-27T02:25:16;11.10;;;5.47;;
14348;SDS011;7258;50.376;8.742;2023-05-27T02:27:21;14.07;;;5.70;;
14348;SDS011;7258;50.376;8.742;2023-05-27T02:29:27;12.40;;;5.47;;
14348;SDS011;7258;50.376;8.742;2023-05-27T02:31:30;13.47;;;5.63;;
14348;SDS011;7258;50.376;8.742;2023-05-27T02:33:33;17.20;;;5.77;;
14348;SDS011;7258;50.376;8.742;2023-05-27T02:35:36;16.63;;;6.63;;
14348;SDS011;7258;50.376;8.742;2023-05-27T02:37:40;15.20;;;5.80;;
14348;SDS011;7258;50.376;8.742;2023-05-27T02:39:44;14.83;;;5.47;;
14348;SDS011;7258;50.376;8.742;2023-05-27T02:41:47;12.73;;;5.20;;
14348;SDS011;7258;50.376;8.742;2023-05-27T02:43:51;17.23;;;6.47;;
14348;SDS011;7258;50.376;8.742;2023-05-27T02:45:58;14.70;;;6.37;;
14348;SDS011;7258;50.376;8.742;2023-05-27T02:48:01;13.53;;;5.30;;
14348;SDS011;7258;50.376;8.742;2023-05-27T02:50:05;14.60;;;5.83;;
14348;SDS011;7258;50.376;8.742;2023-05-27T02:52:09;21.07;;;6.13;;
14348;SDS011;7258;50.376;8.742;2023-05-27T02:54:12;14.60;;;5.73;;
14348;SDS011;7258;50.376;8.742;2023-05-27T02:56:18;12.33;;;5.67;;
14348;SDS011;7258;50.376;8.742;2023-05-27T02:58:24;18.93;;;6.07;;
14348;SDS011;7258;50.376;8.742;2023-05-27T03:00:27;22.37;;;6.73;;
14348;SDS011;7258;50.376;8.742;2023-05-27T03:02:34;15.73;;;5.50;;
14348;SDS011;7258;50.376;8.742;2023-05-27T03:04:37;12.30;;;6.77;;
14348;SDS011;7258;50.376;8.742;2023-05-27T03:06:40;15.33;;;5.90;;
14348;SDS011;7258;50.376;8.742;2023-05-27T03:08:44;15.90;;;6.23;;
14348;SDS011;7258;50.376;8.742;2023-05-27T03:10:48;16.63;;;6.23;;
14348;SDS011;7258;50.376;8.742;2023-05-27T03:12:54;16.53;;;6.30;;
14348;SDS011;7258;50.376;8.742;2023-05-27T03:14:58;14.53;;;5.70;;
14348;SDS011;7258;50.376;8.742;2023-05-27T03:17:01;13.87;;;5.97;;
14348;SDS011;7258;50.376;8.742;2023-05-27T03:19:05;18.47;;;5.93;;
14348;SDS011;7258;50.376;8.742;2023-05-27T03:21:10;18.30;;;5.80;;
14348;SDS011;7258;50.376;8.742;2023-05-27T03:23:13;15.67;;;6.30;;
14348;SDS011;7258;50.376;8.742;2023-05-27T03:25:16;17.17;;;6.97;;
14348;SDS011;7258;50.376;8.742;2023-05-27T03:27:20;13.93;;;6.23;;
14348;SDS011;7258;50.376;8.742;2023-05-27T03:29:23;18.23;;;6.67;;
14348;SDS011;7258;50.376;8.742;2023-05-27T03:31:26;14.93;;;6.10;;
14348;SDS011;7258;50.376;8.742;2023-05-27T03:33:29;15.47;;;6.83;;
14348;SDS011;7258;50.376;8.742;2023-05-27T03:35:34;10.80;;;5.73;;
14348;SDS011;7258;50.376;8.742;2023-05-27T03:37:37;14.23;;;5.93;;
14348;SDS011;7258;50.376;8.742;2023-05-27T03:39:40;14.67;;;6.77;;
14348;SDS011;7258;50.376;8.742;2023-05-27T03:41:44;16.27;;;5.80;;
14348;SDS011;7258;50.376;8.742;2023-05-27T03:43:47;15.67;;;6.33;;
14348;SDS011;7258;50.376;8.742;2023-05-27T03:45:50;17.37;;;6.23;;
14348;SDS011;7258;50.376;8.742;2023-05-27T03:47:54;13.90;;;5.83;;
14348;SDS011;7258;50.376;8.742;2023-05-27T03:50:00;15.07;;;5.63;;
14348;SDS011;7258;50.376;8.742;2023-05-27T03:52:04;11.43;;;6.47;;
14348;SDS011;7258;50.376;8.742;2023-05-27T03:54:08;16.57;;;5.93;;
14348;SDS011;7258;50.376;8.742;2023-05-27T03:56:11;18.07;;;6.60;;
14348;SDS011;7258;50.376;8.742;2023-05-27T03:58:14;14.67;;;6.80;;
14348;SDS011;7258;50.376;8.742;2023-05-27T04:00:18;16.07;;;6.87;;
14348;SDS011;7258;50.376;8.742;2023-05-27T04:02:21;11.93;;;6.03;;
14348;SDS011;7258;50.376;8.742;2023-05-27T04:04:24;16.03;;;6.50;;
14348;SDS011;7258;50.376;8.742;2023-05-27T04:06:27;13.47;;;6.13;;
14348;SDS011;7258;50.376;8.742;2023-05-27T04:08:36;14.37;;;6.10;;
14348;SDS011;7258;50.376;8.742;2023-05-27T04:10:51;15.20;;;6.23;;
14348;SDS011;7258;50.376;8.742;2023-05-27T04:12:54;15.97;;;6.20;;
14348;SDS011;7258;50.376;8.742;2023-05-27T04:14:57;15.30;;;6.23;;
14348;SDS011;7258;50.376;8.742;2023-05-27T04:17:00;18.83;;;7.00;;
14348;SDS011;7258;50.376;8.742;2023-05-27T04:19:03;17.03;;;6.70;;
14348;SDS011;7258;50.376;8.742;2023-05-27T04:21:08;12.93;;;6.13;;
14348;SDS011;7258;50.376;8.742;2023-05-27T04:23:11;17.10;;;6.73;;
14348;SDS011;7258;50.376;8.742;2023-05-27T04:25:16;18.10;;;7.10;;
14348;SDS011;7258;50.376;8.742;2023-05-27T04:27:19;18.73;;;7.67;;
14348;SDS011;7258;50.376;8.742;2023-05-27T04:29:22;12.47;;;6.33;;
14348;SDS011;7258;50.376;8.742;2023-05-27T04:31:25;17.10;;;6.13;;
14348;SDS011;7258;50.376;8.742;2023-05-27T04:33:30;18.23;;;6.87;;
14348;SDS011;7258;50.376;8.742;2023-05-27T04:35:33;14.80;;;6.03;;
14348;SDS011;7258;50.376;8.742;2023-05-27T04:37:36;20.63;;;6.93;;
14348;SDS011;7258;50.376;8.742;2023-05-27T04:39:42;12.60;;;5.80;;
14348;SDS011;7258;50.376;8.742;2023-05-27T04:41:50;17.20;;;5.97;;
14348;SDS011;7258;50.376;8.742;2023-05-27T04:43:53;14.17;;;6.23;;
14348;SDS011;7258;50.376;8.742;2023-05-27T04:45:58;18.37;;;6.77;;
14348;SDS011;7258;50.376;8.742;2023-05-27T04:48:01;15.50;;;6.20;;
14348;SDS011;7258;50.376;8.742;2023-05-27T04:50:08;12.77;;;6.20;;
14348;SDS011;7258;50.376;8.742;2023-05-27T04:52:12;17.73;;;6.77;;
14348;SDS011;7258;50.376;8.742;2023-05-27T04:54:15;11.23;;;6.07;;
14348;SDS011;7258;50.376;8.742;2023-05-27T04:56:18;14.37;;;6.40;;
14348;SDS011;7258;50.376;8.742;2023-05-27T04:58:22;16.30;;;6.63;;
14348;SDS011;7258;50.376;8.742;2023-05-27T05:00:25;17.57;;;6.40;;
14348;SDS011;7258;50.376;8.742;2023-05-27T05:02:39;13.67;;;6.60;;
14348;SDS011;7258;50.376;8.742;2023-05-27T05:04:43;17.83;;;5.93;;
14348;SDS011;7258;50.376;8.742;2023-05-27T05:06:46;14.20;;;6.37;;
14348;SDS011;7258;50.376;8.742;2023-05-27T05:08:49;16.10;;;6.93;;
14348;SDS011;7258;50.376;8.742;2023-05-27T05:10:52;17.00;;;6.50;;
14348;SDS011;7258;50.376;8.742;2023-05-27T05:12:55;16.50;;;6.83;;
14348;SDS011;7258;50.376;8.742;2023-05-27T05:14:59;13.63;;;6.00;;
14348;SDS011;7258;50.376;8.742;2023-05-27T05:17:03;16.07;;;5.73;;
14348;SDS011;7258;50.376;8.742;2023-05-27T05:19:06;12.37;;;6.03;;
14348;SDS011;7258;50.376;8.742;2023-05-27T05:21:09;16.27;;;6.77;;
14348;SDS011;7258;50.376;8.742;2023-05-27T05:23:12;16.17;;;6.67;;
14348;SDS011;7258;50.376;8.742;2023-05-27T05:25:15;16.40;;;6.60;;
14348;SDS011;7258;50.376;8.742;2023-05-27T05:27:18;15.17;;;6.87;;
14348;SDS011;7258;50.376;8.742;2023-05-27T05:29:21;18.40;;;7.13;;
14348;SDS011;7258;50.376;8.742;2023-05-27T05:31:25;15.27;;;6.73;;
14348;SDS011;7258;50.376;8.742;2023-05-27T05:33:29;15.63;;;6.87;;
14348;SDS011;7258;50.376;8.742;2023-05-27T05:35:31;12.77;;;6.80;;
14348;SDS011;7258;50.376;8.742;2023-05-27T05:37:35;14.77;;;6.60;;
14348;SDS011;7258;50.376;8.742;2023-05-27T05:39:40;16.47;;;6.73;;
14348;SDS011;7258;50.376;8.742;2023-05-27T05:41:43;10.63;;;5.70;;
14348;SDS011;7258;50.376;8.742;2023-05-27T05:43:49;12.30;;;6.13;;
14348;SDS011;7258;50.376;8.742;2023-05-27T05:45:52;12.63;;;6.20;;
14348;SDS011;7258;50.376;8.742;2023-05-27T05:47:56;15.80;;;5.90;;
14348;SDS011;7258;50.376;8.742;2023-05-27T05:50:00;13.87;;;6.10;;
14348;SDS011;7258;50.376;8.742;2023-05-27T05:52:03;21.23;;;6.00;;
14348;SDS011;7258;50.376;8.742;2023-05-27T05:54:06;14.60;;;6.30;;
14348;SDS011;7258;50.376;8.742;2023-05-27T05:56:09;12.70;;;6.23;;
14348;SDS011;7258;50.376;8.742;2023-05-27T05:58:12;9.37;;;5.37;;
14348;SDS011;7258;50.376;8.742;2023-05-27T06:00:15;13.70;;;6.43;;
14348;SDS011;7258;50.376;8.742;2023-05-27T06:02:19;17.97;;;6.57;;
14348;SDS011;7258;50.376;8.742;2023-05-27T06:04:24;16.67;;;6.37;;
14348;SDS011;7258;50.376;8.742;2023-05-27T06:06:27;15.00;;;6.33;;
14348;SDS011;7258;50.376;8.742;2023-05-27T06:08:30;13.53;;;6.20;;
14348;SDS011;7258;50.376;8.742;2023-05-27T06:10:33;16.00;;;5.73;;
14348;SDS011;7258;50.376;8.742;2023-05-27T06:12:37;14.00;;;5.97;;
14348;SDS011;7258;50.376;8.742;2023-05-27T06:14:40;13.43;;;6.07;;
14348;SDS011;7258;50.376;8.742;2023-05-27T06:16:43;12.20;;;5.63;;
14348;SDS011;7258;50.376;8.742;2023-05-27T06:18:50;14.27;;;5.50;;
14348;SDS011;7258;50.376;8.742;2023-05-27T06:20:55;16.73;;;5.27;;
14348;SDS011;7258;50.376;8.742;2023-05-27T06:22:58;11.50;;;5.20;;
14348;SDS011;7258;50.376;8.742;2023-05-27T06:25:01;14.87;;;6.07;;
14348;SDS011;7258;50.376;8.742;2023-05-27T06:27:06;10.90;;;5.50;;
14348;SDS011;7258;50.376;8.742;2023-05-27T06:29:09;13.47;;;5.80;;
14348;SDS011;7258;50.376;8.742;2023-05-27T06:31:14;17.10;;;6.53;;
14348;SDS011;7258;50.376;8.742;2023-05-27T06:33:18;12.43;;;5.70;;
14348;SDS011;7258;50.376;8.742;2023-05-27T06:35:22;12.07;;;5.33;;
14348;SDS011;7258;50.376;8.742;2023-05-27T06:37:27;14.77;;;5.95;;
14348;SDS011;7258;50.376;8.742;2023-05-27T06:39:30;12.23;;;5.40;;
14348;SDS011;7258;50.376;8.742;2023-05-27T06:41:33;15.30;;;5.97;;
14348;SDS011;7258;50.376;8.742;2023-05-27T06:43:39;15.60;;;5.30;;
14348;SDS011;7258;50.376;8.742;2023-05-27T06:45:42;13.77;;;6.07;;
14348;SDS011;7258;50.376;8.742;2023-05-27T06:48:04;15.40;;;6.13;;
14348;SDS011;7258;50.376;8.742;2023-05-27T06:50:29;15.23;;;5.47;;
14348;SDS011;7258;50.376;8.742;2023-05-27T06:52:34;10.25;;;4.97;;
14348;SDS011;7258;50.376;8.742;2023-05-27T06:54:38;14.23;;;5.70;;
14348;SDS011;7258;50.376;8.742;2023-05-27T06:56:41;11.15;;;5.35;;
14348;SDS011;7258;50.376;8.742;2023-05-27T06:58:44;13.43;;;5.28;;
14348;SDS011;7258;50.376;8.742;2023-05-27T07:00:53;9.48;;;4.57;;
14348;SDS011;7258;50.376;8.742;2023-05-27T07:03:01;14.10;;;5.18;;
14348;SDS011;7258;50.376;8.742;2023-05-27T07:05:05;13.80;;;5.13;;
14348;SDS011;7258;50.376;8.742;2023-05-27T07:07:12;9.73;;;4.93;;
14348;SDS011;7258;50.376;8.742;2023-05-27T07:09:17;13.38;;;5.07;;
14348;SDS011;7258;50.376;8.742;2023-05-27T07:11:23;11.85;;;5.25;;
14348;SDS011;7258;50.376;8.742;2023-05-27T07:13:28;11.13;;;4.82;;
14348;SDS011;7258;50.376;8.742;2023-05-27T07:15:31;14.07;;;4.63;;
14348;SDS011;7258;50.376;8.742;2023-05-27T07:17:34;10.40;;;4.70;;
14348;SDS011;7258;50.376;8.742;2023-05-27T07:19:40;10.85;;;4.70;;
14348;SDS011;7258;50.376;8.742;2023-05-27T07:21:46;12.70;;;4.82;;
14348;SDS011;7258;50.376;8.742;2023-05-27T07:23:57;13.38;;;4.53;;
14348;SDS011;7258;50.376;8.742;2023-05-27T07:26:08;14.15;;;5.22;;
14348;SDS011;7258;50.376;8.742;2023-05-27T07:28:19;10.98;;;4.50;;
14348;SDS011;7258;50.376;8.742;2023-05-27T07:30:23;12.18;;;4.90;;
14348;SDS011;7258;50.376;8.742;2023-05-27T07:36:16;10.80;;;4.75;;
14348;SDS011;7258;50.376;8.742;2023-05-27T07:38:19;10.77;;;4.75;;
14348;SDS011;7258;50.376;8.742;2023-05-27T07:40:24;13.07;;;4.55;;
14348;SDS011;7258;50.376;8.742;2023-05-27T07:42:31;13.38;;;4.65;;
14348;SDS011;7258;50.376;8.742;2023-05-27T07:45:05;12.45;;;4.95;;
14348;SDS011;7258;50.376;8.742;2023-05-27T07:47:09;12.10;;;5.20;;
14348;SDS011;7258;50.376;8.742;2023-05-27T07:49:15;8.82;;;4.43;;
14348;SDS011;7258;50.376;8.742;2023-05-27T07:51:30;10.63;;;4.65;;
14348;SDS011;7258;50.376;8.742;2023-05-27T07:53:38;10.57;;;4.43;;
14348;SDS011;7258;50.376;8.742;2023-05-27T07:55:43;12.95;;;4.85;;
14348;SDS011;7258;50.376;8.742;2023-05-27T07:58:01;10.65;;;5.13;;
14348;SDS011;7258;50.376;8.742;2023-05-27T08:00:05;8.65;;;3.95;;
14348;SDS011;7258;50.376;8.742;2023-05-27T08:02:24;12.10;;;5.05;;
14348;SDS011;7258;50.376;8.742;2023-05-27T08:04:35;9.05;;;4.35;;
14348;SDS011;7258;50.376;8.742;2023-05-27T08:07:08;13.50;;;4.63;;
14348;SDS011;7258;50.376;8.742;2023-05-27T08:09:12;15.35;;;5.07;;
14348;SDS011;7258;50.376;8.742;2023-05-27T08:11:22;9.20;;;4.25;;
14348;SDS011;7258;50.376;8.742;2023-05-27T08:13:29;13.60;;;4.60;;
14348;SDS011;7258;50.376;8.742;2023-05-27T08:15:32;10.38;;;4.45;;
14348;SDS011;7258;50.376;8.742;2023-05-27T08:17:36;13.00;;;4.53;;
14348;SDS011;7258;50.376;8.742;2023-05-27T08:19:39;10.73;;;4.60;;
14348;SDS011;7258;50.376;8.742;2023-05-27T08:21:51;11.52;;;4.50;;
14348;SDS011;7258;50.376;8.742;2023-05-27T08:23:56;10.13;;;4.13;;
14348;SDS011;7258;50.376;8.742;2023-05-27T08:26:00;13.55;;;4.60;;
14348;SDS011;7258;50.376;8.742;2023-05-27T08:28:05;12.27;;;4.30;;
14348;SDS011;7258;50.376;8.742;2023-05-27T08:30:25;9.13;;;4.53;;
14348;SDS011;7258;50.376;8.742;2023-05-27T08:32:29;10.60;;;4.75;;
14348;SDS011;7258;50.376;8.742;2023-05-27T08:34:33;10.63;;;5.03;;
14348;SDS011;7258;50.376;8.742;2023-05-27T08:36:37;13.65;;;4.85;;
14348;SDS011;7258;50.376;8.742;2023-05-27T08:38:40;9.52;;;4.43;;
14348;SDS011;7258;50.376;8.742;2023-05-27T08:40:43;11.63;;;4.32;;
14348;SDS011;7258;50.376;8.742;2023-05-27T08:42:47;11.70;;;4.60;;
14348;SDS011;7258;50.376;8.742;2023-05-27T08:44:50;8.73;;;4.10;;
14348;SDS011;7258;50.376;8.742;2023-05-27T08:46:54;8.40;;;4.32;;
14348;SDS011;7258;50.376;8.742;2023-05-27T08:48:58;10.80;;;4.60;;
14348;SDS011;7258;50.376;8.742;2023-05-27T08:51:01;10.70;;;4.40;;
14348;SDS011;7258;50.376;8.742;2023-05-27T08:53:05;9.88;;;4.40;;
14348;SDS011;7258;50.376;8.742;2023-05-27T08:55:11;9.40;;;4.25;;
14348;SDS011;7258;50.376;8.742;2023-05-27T08:57:17;9.35;;;4.18;;
14348;SDS011;7258;50.376;8.742;2023-05-27T08:59:25;7.90;;;3.72;;
14348;SDS011;7258;50.376;8.742;2023-05-27T09:01:29;9.27;;;4.00;;
14348;SDS011;7258;50.376;8.742;2023-05-27T09:03:35;8.95;;;4.43;;
14348;SDS011;7258;50.376;8.742;2023-05-27T09:05:38;12.93;;;4.75;;
14348;SDS011;7258;50.376;8.742;2023-05-27T09:07:41;9.15;;;4.40;;
14348;SDS011;7258;50.376;8.742;2023-05-27T09:09:53;10.57;;;4.15;;
14348;SDS011;7258;50.376;8.742;2023-05-27T09:11:58;10.57;;;4.25;;
14348;SDS011;7258;50.376;8.742;2023-05-27T09:14:02;10.85;;;4.32;;
14348;SDS011;7258;50.376;8.742;2023-05-27T09:16:05;7.97;;;3.88;;
14348;SDS011;7258;50.376;8.742;2023-05-27T09:18:08;13.13;;;4.40;;
14348;SDS011;7258;50.376;8.742;2023-05-27T09:20:17;10.40;;;3.80;;
14348;SDS011;7258;50.376;8.742;2023-05-27T09:22:28;9.77;;;4.28;;
14348;SDS011;7258;50.376;8.742;2023-05-27T09:24:32;8.65;;;4.10;;
14348;SDS011;7258;50.376;8.742;2023-05-27T09:26:35;10.43;;;4.20;;
14348;SDS011;7258;50.376;8.742;2023-05-27T09:28:39;8.35;;;3.72;;
14348;SDS011;7258;50.376;8.742;2023-05-27T09:30:43;9.27;;;3.92;;
14348;SDS011;7258;50.376;8.742;2023-05-27T09:32:50;8.63;;;3.88;;
14348;SDS011;7258;50.376;8.742;2023-05-27T09:34:53;10.95;;;4.03;;
14348;SDS011;7258;50.376;8.742;2023-05-27T09:36:58;9.02;;;4.63;;
14348;SDS011;7258;50.376;8.742;2023-05-27T09:39:02;10.82;;;4.20;;
14348;SDS011;7258;50.376;8.742;2023-05-27T09:41:06;11.95;;;4.82;;
14348;SDS011;7258;50.376;8.742;2023-05-27T09:43:12;11.13;;;4.20;;
14348;SDS011;7258;50.376;8.742;2023-05-27T09:45:16;11.32;;;4.63;;
14348;SDS011;7258;50.376;8.742;2023-05-27T09:47:20;7.38;;;4.10;;
14348;SDS011;7258;50.376;8.742;2023-05-27T09:49:25;11.63;;;4.25;;
14348;SDS011;7258;50.376;8.742;2023-05-27T09:51:29;7.00;;;3.88;;
14348;SDS011;7258;50.376;8.742;2023-05-27T09:53:35;12.25;;;4.47;;
14348;SDS011;7258;50.376;8.742;2023-05-27T09:55:40;10.30;;;4.32;;
14348;SDS011;7258;50.376;8.742;2023-05-27T09:57:43;12.25;;;4.25;;
14348;SDS011;7258;50.376;8.742;2023-05-27T09:59:46;9.90;;;4.40;;
14348;SDS011;7258;50.376;8.742;2023-05-27T10:01:50;10.40;;;4.18;;
14348;SDS011;7258;50.376;8.742;2023-05-27T10:03:55;7.40;;;3.75;;
14348;SDS011;7258;50.376;8.742;2023-05-27T10:06:00;11.70;;;4.07;;
14348;SDS011;7258;50.376;8.742;2023-05-27T10:08:04;8.73;;;3.92;;
14348;SDS011;7258;50.376;8.742;2023-05-27T10:10:25;10.30;;;4.22;;
14348;SDS011;7258;50.376;8.742;2023-05-27T10:12:29;10.77;;;4.70;;
14348;SDS011;7258;50.376;8.742;2023-05-27T10:14:33;9.98;;;4.10;;
14348;SDS011;7258;50.376;8.742;2023-05-27T10:16:36;9.60;;;3.80;;
14348;SDS011;7258;50.376;8.742;2023-05-27T10:18:41;11.15;;;4.20;;
14348;SDS011;7258;50.376;8.742;2023-05-27T10:20:48;7.70;;;3.78;;
14348;SDS011;7258;50.376;8.742;2023-05-27T10:22:52;8.50;;;3.53;;
14348;SDS011;7258;50.376;8.742;2023-05-27T10:25:06;8.20;;;4.00;;
14348;SDS011;7258;50.376;8.742;2023-05-27T10:27:15;7.85;;;3.70;;
14348;SDS011;7258;50.376;8.742;2023-05-27T10:29:21;9.60;;;4.20;;
14348;SDS011;7258;50.376;8.742;2023-05-27T10:31:29;6.47;;;3.38;;
14348;SDS011;7258;50.376;8.742;2023-05-27T10:33:36;8.70;;;4.32;;
14348;SDS011;7258;50.376;8.742;2023-05-27T10:35:40;10.88;;;4.55;;
14348;SDS011;7258;50.376;8.742;2023-05-27T10:37:45;7.95;;;4.22;;
14348;SDS011;7258;50.376;8.742;2023-05-27T10:39:54;8.48;;;3.67;;
14348;SDS011;7258;50.376;8.742;2023-05-27T10:41:58;9.18;;;4.18;;
14348;SDS011;7258;50.376;8.742;2023-05-27T10:44:02;9.63;;;4.05;;
14348;SDS011;7258;50.376;8.742;2023-05-27T10:46:07;9.68;;;3.90;;
14348;SDS011;7258;50.376;8.742;2023-05-27T10:48:15;7.93;;;4.00;;
14348;SDS011;7258;50.376;8.742;2023-05-27T10:50:19;7.35;;;3.72;;
14348;SDS011;7258;50.376;8.742;2023-05-27T10:52:31;11.40;;;4.43;;
14348;SDS011;7258;50.376;8.742;2023-05-27T10:54:38;14.23;;;4.35;;
14348;SDS011;7258;50.376;8.742;2023-05-27T10:56:47;8.60;;;4.45;;
14348;SDS011;7258;50.376;8.742;2023-05-27T10:58:52;9.32;;;3.88;;
14348;SDS011;7258;50.376;8.742;2023-05-27T11:00:59;8.38;;;4.00;;
14348;SDS011;7258;50.376;8.742;2023-05-27T11:03:15;8.90;;;3.55;;
14348;SDS011;7258;50.376;8.742;2023-05-27T11:05:19;7.07;;;3.58;;
14348;SDS011;7258;50.376;8.742;2023-05-27T11:07:29;8.82;;;3.90;;
14348;SDS011;7258;50.376;8.742;2023-05-27T11:09:41;6.32;;;3.55;;
14348;SDS011;7258;50.376;8.742;2023-05-27T11:11:45;8.30;;;3.95;;
14348;SDS011;7258;50.376;8.742;2023-05-27T11:13:48;7.68;;;4.22;;
14348;SDS011;7258;50.376;8.742;2023-05-27T11:15:51;12.43;;;4.93;;
14348;SDS011;7258;50.376;8.742;2023-05-27T11:18:00;8.77;;;3.78;;
14348;SDS011;7258;50.376;8.742;2023-05-27T11:20:04;8.38;;;4.15;;
14348;SDS011;7258;50.376;8.742;2023-05-27T11:22:09;8.20;;;3.97;;
14348;SDS011;7258;50.376;8.742;2023-05-27T11:24:16;6.68;;;3.83;;
14348;SDS011;7258;50.376;8.742;2023-05-27T11:26:20;8.05;;;4.07;;
14348;SDS011;7258;50.376;8.742;2023-05-27T11:28:24;9.05;;;4.22;;
14348;SDS011;7258;50.376;8.742;2023-05-27T11:30:27;7.00;;;3.60;;
14348;SDS011;7258;50.376;8.742;2023-05-27T11:32:32;6.40;;;3.38;;
14348;SDS011;7258;50.376;8.742;2023-05-27T11:34:37;10.25;;;3.67;;
14348;SDS011;7258;50.376;8.742;2023-05-27T11:36:41;9.05;;;3.90;;
14348;SDS011;7258;50.376;8.742;2023-05-27T11:38:48;7.68;;;3.55;;
14348;SDS011;7258;50.376;8.742;2023-05-27T11:40:52;9.23;;;4.45;;
14348;SDS011;7258;50.376;8.742;2023-05-27T11:42:59;8.20;;;4.28;;
14348;SDS011;7258;50.376;8.742;2023-05-27T11:45:03;6.95;;;3.35;;
14348;SDS011;7258;50.376;8.742;2023-05-27T11:47:08;7.97;;;4.25;;
14348;SDS011;7258;50.376;8.742;2023-05-27T11:49:12;9.77;;;4.78;;
14348;SDS011;7258;50.376;8.742;2023-05-27T11:51:25;9.10;;;4.05;;
14348;SDS011;7258;50.376;8.742;2023-05-27T11:53:29;8.48;;;3.90;;
14348;SDS011;7258;50.376;8.742;2023-05-27T11:55:32;7.15;;;3.83;;
14348;SDS011;7258;50.376;8.742;2023-05-27T11:57:35;7.18;;;3.40;;
14348;SDS011;7258;50.376;8.742;2023-05-27T11:59:38;8.10;;;3.78;;
14348;SDS011;7258;50.376;8.742;2023-05-27T12:01:41;9.70;;;3.90;;
14348;SDS011;7258;50.376;8.742;2023-05-27T12:03:45;7.70;;;3.85;;
14348;SDS011;7258;50.376;8.742;2023-05-27T12:05:48;10.00;;;4.55;;
14348;SDS011;7258;50.376;8.742;2023-05-27T12:07:53;12.80;;;4.38;;
14348;SDS011;7258;50.376;8.742;2023-05-27T12:09:56;6.93;;;3.60;;
14348;SDS011;7258;50.376;8.742;2023-05-27T12:11:58;9.20;;;3.92;;
14348;SDS011;7258;50.376;8.742;2023-05-27T12:14:02;11.20;;;4.25;;
14348;SDS011;7258;50.376;8.742;2023-05-27T12:16:08;10.05;;;3.45;;
14348;SDS011;7258;50.376;8.742;2023-05-27T12:18:11;9.60;;;4.00;;
14348;SDS011;7258;50.376;8.742;2023-05-27T12:20:14;7.30;;;3.80;;
14348;SDS011;7258;50.376;8.742;2023-05-27T12:22:16;6.68;;;3.63;;
14348;SDS011;7258;50.376;8.742;2023-05-27T12:24:21;7.55;;;3.50;;
14348;SDS011;7258;50.376;8.742;2023-05-27T12:26:24;10.95;;;4.32;;
14348;SDS011;7258;50.376;8.742;2023-05-27T12:28:27;6.40;;;3.63;;
14348;SDS011;7258;50.376;8.742;2023-05-27T12:30:30;9.25;;;4.03;;
14348;SDS011;7258;50.376;8.742;2023-05-27T12:32:33;6.97;;;4.00;;
14348;SDS011;7258;50.376;8.742;2023-05-27T12:34:37;9.05;;;4.05;;
14348;SDS011;7258;50.376;8.742;2023-05-27T12:36:40;7.00;;;3.90;;
14348;SDS011;7258;50.376;8.742;2023-05-27T12:38:42;8.15;;;3.72;;
14348;SDS011;7258;50.376;8.742;2023-05-27T12:40:47;8.32;;;3.83;;